sensor_id;sensor_type;location;lat;lon;timestamp;pressure;altitude;pressure_sealevel;temperature;humidity
13124;BME280;6627;50.920;12.050;2023-12-28T00:01:54;98069.44;;;13.83;44.12
13124;BME280;6627;50.920;12.050;2023-12-28T00:04:21;98096.56;;;14.28;43.43
13124;BME280;6627;50.920;12.050;2023-12-28T00:06:50;97977.47;;;13.64;43.67
13124;BME280;6627;50.920;12.050;2023-12-28T00:09:22;98062.97;;;14.24;43.29
13124;BME280;6627;50.920;12.050;2023-12-28T00:11:49;97971.69;;;13.90;42.93
13124;BME280;6627;50.920;12.050;2023-12-28T00:14:33;98076.81;;;14.07;43.90
13124;BME280;6627;50.920;12.050;2023-12-28T00:17:00;98012.16;;;13.67;43.89
13124;BME280;6627;50.920;12.050;2023-12-28T00:19:28;98074.78;;;14.53;42.47
13124;BME280;6627;50.920;12.050;2023-12-28T00:22:16;98048.22;;;14.50;42.35
13124;BME280;6627;50.920;12.050;2023-12-28T00:24:55;98000.13;;;14.05;42.57
13124;BME280;6627;50.920;12.050;2023-12-28T00:27:23;98033.91;;;14.41;41.86
13124;BME280;6627;50.920;12.050;2023-12-28T00:29:52;97995.78;;;14.53;41.04
13124;BME280;6627;50.920;12.050;2023-12-28T00:32:20;98033.41;;;14.75;40.96
13124;BME280;6627;50.920;12.050;2023-12-28T00:34:58;98089.06;;;15.14;40.07
13124;BME280;6627;50.920;12.050;2023-12-28T00:37:38;97960.09;;;14.46;41.19
13124;BME280;6627;50.920;12.050;2023-12-28T00:40:07;98016.41;;;14.66;41.12
13124;BME280;6627;50.920;12.050;2023-12-28T00:42:54;98015.69;;;14.17;41.76
13124;BME280;6627;50.920;12.050;2023-12-28T00:45:34;97979.91;;;14.30;41.02
13124;BME280;6627;50.920;12.050;2023-12-28T00:48:18;97981.72;;;14.79;39.81
13124;BME280;6627;50.920;12.050;2023-12-28T00:50:46;97887.69;;;14.45;39.35
13124;BME280;6627;50.920;12.050;2023-12-28T00:53:14;98017.34;;;15.14;39.33
13124;BME280;6627;50.920;12.050;2023-12-28T00:55:42;97933.31;;;15.04;38.58
13124;BME280;6627;50.920;12.050;2023-12-28T00:58:22;97846.97;;;14.64;38.85
13124;BME280;6627;50.920;12.050;2023-12-28T01:01:09;97853.84;;;14.58;39.08
13124;BME280;6627;50.920;12.050;2023-12-28T01:03:56;97898.97;;;14.87;38.69
13124;BME280;6627;50.920;12.050;2023-12-28T01:06:24;97865.84;;;15.01;38.05
13124;BME280;6627;50.920;12.050;2023-12-28T01:08:56;97756.63;;;14.34;38.36
13124;BME280;6627;50.920;12.050;2023-12-28T01:11:23;97903.59;;;15.14;38.19
13124;BME280;6627;50.920;12.050;2023-12-28T01:14:06;97898.56;;;15.01;38.59
13124;BME280;6627;50.920;12.050;2023-12-28T01:16:52;97816.56;;;14.62;38.56
13124;BME280;6627;50.920;12.050;2023-12-28T01:19:24;97925.47;;;15.18;38.65
13124;BME280;6627;50.920;12.050;2023-12-28T01:22:11;97809.28;;;14.66;38.33
13124;BME280;6627;50.920;12.050;2023-12-28T01:24:41;98025.69;;;15.97;37.13
13124;BME280;6627;50.920;12.050;2023-12-28T01:27:09;97840.16;;;15.02;37.74
13124;BME280;6627;50.920;12.050;2023-12-28T01:29:45;97885.91;;;15.24;37.71
13124;BME280;6627;50.920;12.050;2023-12-28T01:32:32;97849.72;;;15.43;36.69
13124;BME280;6627;50.920;12.050;2023-12-28T01:35:06;97892.56;;;15.74;36.53
13124;BME280;6627;50.920;12.050;2023-12-28T01:37:34;97841.16;;;15.76;36.08
13124;BME280;6627;50.920;12.050;2023-12-28T01:40:04;97875.63;;;15.84;36.43
13124;BME280;6627;50.920;12.050;2023-12-28T01:42:32;97731.59;;;15.23;36.32
13124;BME280;6627;50.920;12.050;2023-12-28T01:45:01;97684.88;;;15.09;36.08
13124;BME280;6627;50.920;12.050;2023-12-28T01:47:42;97787.25;;;15.73;35.87
13124;BME280;6627;50.920;12.050;2023-12-28T01:50:31;97695.16;;;15.16;36.38
13124;BME280;6627;50.920;12.050;2023-12-28T01:53:00;97717.75;;;15.32;35.97
13124;BME280;6627;50.920;12.050;2023-12-28T01:55:33;97818.28;;;15.65;36.30
13124;BME280;6627;50.920;12.050;2023-12-28T01:58:11;97827.88;;;16.13;35.47
13124;BME280;6627;50.920;12.050;2023-12-28T02:00:41;97824.78;;;15.96;35.41
13124;BME280;6627;50.920;12.050;2023-12-28T02:03:11;97804.38;;;16.09;35.17
13124;BME280;6627;50.920;12.050;2023-12-28T02:05:42;97706.06;;;15.70;34.89
13124;BME280;6627;50.920;12.050;2023-12-28T02:08:19;97688.31;;;15.41;35.46
13124;BME280;6627;50.920;12.050;2023-12-28T02:10:47;97650.63;;;15.27;35.33
13124;BME280;6627;50.920;12.050;2023-12-28T02:13:17;97669.72;;;15.27;35.68
13124;BME280;6627;50.920;12.050;2023-12-28T02:15:50;97703.00;;;15.72;34.89
13124;BME280;6627;50.920;12.050;2023-12-28T02:18:44;97594.19;;;15.12;35.07
13124;BME280;6627;50.920;12.050;2023-12-28T02:21:33;97707.63;;;15.71;34.77
13124;BME280;6627;50.920;12.050;2023-12-28T02:24:01;97720.13;;;15.92;34.82
13124;BME280;6627;50.920;12.050;2023-12-28T02:26:29;97681.09;;;15.68;34.43
13124;BME280;6627;50.920;12.050;2023-12-28T02:29:17;97628.94;;;15.34;34.92
13124;BME280;6627;50.920;12.050;2023-12-28T02:32:04;97654.31;;;15.58;34.29
13124;BME280;6627;50.920;12.050;2023-12-28T02:34:40;97722.72;;;16.04;34.29
13124;BME280;6627;50.920;12.050;2023-12-28T02:37:12;97622.69;;;15.73;33.82
13124;BME280;6627;50.920;12.050;2023-12-28T02:40:04;97632.06;;;15.75;34.05
13124;BME280;6627;50.920;12.050;2023-12-28T02:42:52;97656.19;;;15.93;34.01
13124;BME280;6627;50.920;12.050;2023-12-28T02:45:40;97632.94;;;15.79;33.97
13124;BME280;6627;50.920;12.050;2023-12-28T02:48:07;97557.28;;;15.37;34.37
13124;BME280;6627;50.920;12.050;2023-12-28T02:50:37;97537.75;;;15.35;34.14
13124;BME280;6627;50.920;12.050;2023-12-28T02:53:06;97626.63;;;15.75;34.20
13124;BME280;6627;50.920;12.050;2023-12-28T02:55:53;97536.06;;;15.27;34.30
13124;BME280;6627;50.920;12.050;2023-12-28T02:58:23;97589.69;;;15.62;34.12
13124;BME280;6627;50.920;12.050;2023-12-28T03:01:07;97463.56;;;14.84;34.67
13124;BME280;6627;50.920;12.050;2023-12-28T03:03:37;97570.03;;;15.53;34.44
13124;BME280;6627;50.920;12.050;2023-12-28T03:06:04;97508.22;;;14.99;35.09
13124;BME280;6627;50.920;12.050;2023-12-28T03:08:47;97503.72;;;14.87;35.34
13124;BME280;6627;50.920;12.050;2023-12-28T03:11:29;97504.66;;;14.75;35.60
13124;BME280;6627;50.920;12.050;2023-12-28T03:14:17;97510.53;;;14.58;36.16
13124;BME280;6627;50.920;12.050;2023-12-28T03:16:44;97579.97;;;15.03;35.62
13124;BME280;6627;50.920;12.050;2023-12-28T03:19:11;97566.72;;;15.01;35.56
13124;BME280;6627;50.920;12.050;2023-12-28T03:21:58;97654.13;;;15.86;34.56
13124;BME280;6627;50.920;12.050;2023-12-28T03:24:39;97620.19;;;15.64;34.59
13124;BME280;6627;50.920;12.050;2023-12-28T03:27:22;97670.56;;;15.89;34.75
13124;BME280;6627;50.920;12.050;2023-12-28T03:29:51;97652.03;;;15.99;34.53
13124;BME280;6627;50.920;12.050;2023-12-28T03:32:28;97680.72;;;16.35;33.85
13124;BME280;6627;50.920;12.050;2023-12-28T03:34:56;97744.56;;;16.69;33.77
13124;BME280;6627;50.920;12.050;2023-12-28T03:37:23;97783.03;;;16.80;34.04
13124;BME280;6627;50.920;12.050;2023-12-28T03:39:51;97625.66;;;16.10;34.03
13124;BME280;6627;50.920;12.050;2023-12-28T03:42:18;97734.53;;;16.54;34.02
13124;BME280;6627;50.920;12.050;2023-12-28T03:44:47;97726.19;;;16.47;34.08
13124;BME280;6627;50.920;12.050;2023-12-28T03:47:19;97730.09;;;16.46;34.37
13124;BME280;6627;50.920;12.050;2023-12-28T03:49:57;97737.09;;;16.43;34.60
13124;BME280;6627;50.920;12.050;2023-12-28T03:52:29;97672.34;;;16.01;34.82
13124;BME280;6627;50.920;12.050;2023-12-28T03:54:57;97647.88;;;15.85;35.12
13124;BME280;6627;50.920;12.050;2023-12-28T03:57:25;97697.91;;;16.12;35.05
13124;BME280;6627;50.920;12.050;2023-12-28T04:00:02;97868.81;;;17.14;34.21
13124;BME280;6627;50.920;12.050;2023-12-28T04:02:30;97875.16;;;17.45;33.78
13124;BME280;6627;50.920;12.050;2023-12-28T04:05:11;97856.22;;;17.59;33.40
13124;BME280;6627;50.920;12.050;2023-12-28T04:07:38;97774.28;;;17.20;33.35
13124;BME280;6627;50.920;12.050;2023-12-28T04:10:07;97897.41;;;17.93;33.19
13124;BME280;6627;50.920;12.050;2023-12-28T04:12:34;97872.66;;;17.85;33.07
13124;BME280;6627;50.920;12.050;2023-12-28T04:15:04;97760.81;;;17.08;33.85
13124;BME280;6627;50.920;12.050;2023-12-28T04:17:52;97781.50;;;17.32;33.73
13124;BME280;6627;50.920;12.050;2023-12-28T04:20:19;97642.28;;;16.24;35.30
13124;BME280;6627;50.920;12.050;2023-12-28T04:22:53;97643.94;;;16.06;35.61
13124;BME280;6627;50.920;12.050;2023-12-28T04:25:21;97648.91;;;16.00;35.79
13124;BME280;6627;50.920;12.050;2023-12-28T04:27:48;97712.34;;;16.13;36.30
13124;BME280;6627;50.920;12.050;2023-12-28T04:30:35;97682.47;;;16.01;36.08
13124;BME280;6627;50.920;12.050;2023-12-28T04:33:04;97763.94;;;16.18;36.51
13124;BME280;6627;50.920;12.050;2023-12-28T04:35:32;97738.41;;;15.87;36.99
13124;BME280;6627;50.920;12.050;2023-12-28T04:37:59;97722.31;;;15.82;37.05
13124;BME280;6627;50.920;12.050;2023-12-28T04:40:46;97783.44;;;16.17;36.96
13124;BME280;6627;50.920;12.050;2023-12-28T04:43:29;97603.22;;;15.16;37.19
13124;BME280;6627;50.920;12.050;2023-12-28T04:46:01;97747.75;;;15.86;37.38
13124;BME280;6627;50.920;12.050;2023-12-28T04:48:49;97761.97;;;15.76;37.58
13124;BME280;6627;50.920;12.050;2023-12-28T04:51:17;97847.97;;;16.05;37.97
13124;BME280;6627;50.920;12.050;2023-12-28T04:53:55;97859.19;;;16.20;37.46
13124;BME280;6627;50.920;12.050;2023-12-28T04:56:24;97936.25;;;16.83;36.47
13124;BME280;6627;50.920;12.050;2023-12-28T04:59:11;97924.16;;;16.65;37.05
13124;BME280;6627;50.920;12.050;2023-12-28T05:01:58;97843.16;;;16.37;36.21
13124;BME280;6627;50.920;12.050;2023-12-28T05:04:27;97913.78;;;16.55;37.09
13124;BME280;6627;50.920;12.050;2023-12-28T05:06:54;98005.19;;;17.35;36.29
13124;BME280;6627;50.920;12.050;2023-12-28T05:09:36;97913.13;;;16.61;37.01
13124;BME280;6627;50.920;12.050;2023-12-28T05:12:23;97856.88;;;16.02;37.95
13124;BME280;6627;50.920;12.050;2023-12-28T05:15:02;97926.41;;;16.24;38.21
13124;BME280;6627;50.920;12.050;2023-12-28T05:17:49;98018.84;;;16.73;37.79
13124;BME280;6627;50.920;12.050;2023-12-28T05:20:31;98083.47;;;17.39;36.89
13124;BME280;6627;50.920;12.050;2023-12-28T05:22:58;98015.84;;;16.98;37.25
13124;BME280;6627;50.920;12.050;2023-12-28T05:25:37;97912.00;;;16.43;37.30
13124;BME280;6627;50.920;12.050;2023-12-28T05:28:05;98052.41;;;17.09;37.51
13124;BME280;6627;50.920;12.050;2023-12-28T05:30:41;98054.97;;;17.21;37.14
13124;BME280;6627;50.920;12.050;2023-12-28T05:33:08;98046.06;;;17.24;37.42
13124;BME280;6627;50.920;12.050;2023-12-28T05:35:37;97980.47;;;16.70;37.92
13124;BME280;6627;50.920;12.050;2023-12-28T05:38:15;97949.59;;;16.50;37.94
13124;BME280;6627;50.920;12.050;2023-12-28T05:40:42;97885.34;;;15.66;39.48
13124;BME280;6627;50.920;12.050;2023-12-28T05:43:21;98003.09;;;16.31;39.18
13124;BME280;6627;50.920;12.050;2023-12-28T05:45:48;97983.59;;;15.98;39.71
13124;BME280;6627;50.920;12.050;2023-12-28T05:48:35;98008.56;;;16.31;39.16
13124;BME280;6627;50.920;12.050;2023-12-28T05:51:18;98130.59;;;17.10;37.87
13124;BME280;6627;50.920;12.050;2023-12-28T05:53:45;98231.63;;;17.93;36.94
13124;BME280;6627;50.920;12.050;2023-12-28T05:56:13;98020.28;;;17.06;36.93
13124;BME280;6627;50.920;12.050;2023-12-28T05:58:47;98052.53;;;16.77;38.10
13124;BME280;6627;50.920;12.050;2023-12-28T06:01:28;98045.47;;;16.76;38.13
13124;BME280;6627;50.920;12.050;2023-12-28T06:03:55;97930.19;;;15.65;39.92
13124;BME280;6627;50.920;12.050;2023-12-28T06:06:25;97937.81;;;15.75;39.57
13124;BME280;6627;50.920;12.050;2023-12-28T06:08:52;98008.91;;;15.95;39.77
13124;BME280;6627;50.920;12.050;2023-12-28T06:11:40;97984.94;;;16.23;38.60
13124;BME280;6627;50.920;12.050;2023-12-28T06:14:07;98106.34;;;16.73;38.59
13124;BME280;6627;50.920;12.050;2023-12-28T06:16:35;98022.38;;;15.87;39.90
13124;BME280;6627;50.920;12.050;2023-12-28T06:19:02;98023.88;;;15.85;39.94
13124;BME280;6627;50.920;12.050;2023-12-28T06:21:30;98046.84;;;16.00;39.74
13124;BME280;6627;50.920;12.050;2023-12-28T06:23:58;98038.56;;;16.12;39.51
13124;BME280;6627;50.920;12.050;2023-12-28T06:26:45;98138.53;;;16.80;38.83
13124;BME280;6627;50.920;12.050;2023-12-28T06:29:13;98174.78;;;16.77;39.15
13124;BME280;6627;50.920;12.050;2023-12-28T06:31:52;98071.50;;;15.87;39.91
13124;BME280;6627;50.920;12.050;2023-12-28T06:34:24;98157.16;;;16.74;38.84
13124;BME280;6627;50.920;12.050;2023-12-28T06:36:57;98054.94;;;15.80;40.24
13124;BME280;6627;50.920;12.050;2023-12-28T06:39:46;98133.56;;;16.34;39.75
13124;BME280;6627;50.920;12.050;2023-12-28T06:42:29;97960.50;;;15.16;40.23
13124;BME280;6627;50.920;12.050;2023-12-28T06:44:57;98237.00;;;16.20;40.65
13124;BME280;6627;50.920;12.050;2023-12-28T06:47:24;98143.88;;;16.25;40.05
13124;BME280;6627;50.920;12.050;2023-12-28T06:50:08;98131.78;;;16.26;40.05
13124;BME280;6627;50.920;12.050;2023-12-28T06:52:37;98096.19;;;15.91;40.19
13124;BME280;6627;50.920;12.050;2023-12-28T06:55:09;98178.31;;;16.46;40.18
13124;BME280;6627;50.920;12.050;2023-12-28T06:57:38;98163.44;;;16.43;39.93
13124;BME280;6627;50.920;12.050;2023-12-28T07:00:07;98142.09;;;16.33;40.08
13124;BME280;6627;50.920;12.050;2023-12-28T07:02:54;98172.84;;;16.14;41.01
13124;BME280;6627;50.920;12.050;2023-12-28T07:05:31;98132.66;;;15.99;40.65
13124;BME280;6627;50.920;12.050;2023-12-28T07:08:10;98199.38;;;16.13;40.99
13124;BME280;6627;50.920;12.050;2023-12-28T07:10:37;98102.00;;;15.61;41.16
13124;BME280;6627;50.920;12.050;2023-12-28T07:13:06;98234.06;;;16.57;40.64
13124;BME280;6627;50.920;12.050;2023-12-28T07:15:49;98140.41;;;15.97;40.73
13124;BME280;6627;50.920;12.050;2023-12-28T07:18:16;98178.53;;;15.77;41.78
13124;BME280;6627;50.920;12.050;2023-12-28T07:20:43;98057.69;;;14.80;42.94
13124;BME280;6627;50.920;12.050;2023-12-28T07:23:27;98212.63;;;15.83;41.92
13124;BME280;6627;50.920;12.050;2023-12-28T07:26:06;98163.25;;;15.20;42.95
13124;BME280;6627;50.920;12.050;2023-12-28T07:28:35;98293.84;;;16.14;41.85
13124;BME280;6627;50.920;12.050;2023-12-28T07:31:03;98221.94;;;15.54;42.34
13124;BME280;6627;50.920;12.050;2023-12-28T07:33:31;98333.16;;;16.54;41.38
13124;BME280;6627;50.920;12.050;2023-12-28T07:36:11;98212.09;;;15.25;43.21
13124;BME280;6627;50.920;12.050;2023-12-28T07:38:39;98238.06;;;15.72;42.26
13124;BME280;6627;50.920;12.050;2023-12-28T07:41:07;98233.00;;;15.33;43.10
13124;BME280;6627;50.920;12.050;2023-12-28T07:43:35;98333.31;;;16.29;41.77
13124;BME280;6627;50.920;12.050;2023-12-28T07:46:14;98244.88;;;15.66;42.44
13124;BME280;6627;50.920;12.050;2023-12-28T07:48:53;98260.88;;;15.79;42.66
13124;BME280;6627;50.920;12.050;2023-12-28T07:51:32;98253.56;;;15.43;43.52
13124;BME280;6627;50.920;12.050;2023-12-28T07:54:20;98235.00;;;15.49;43.00
13124;BME280;6627;50.920;12.050;2023-12-28T07:56:48;98213.53;;;14.70;44.82
13124;BME280;6627;50.920;12.050;2023-12-28T07:59:15;98246.69;;;14.72;45.03
13124;BME280;6627;50.920;12.050;2023-12-28T08:01:43;98332.25;;;15.41;44.25
13124;BME280;6627;50.920;12.050;2023-12-28T08:04:31;98357.81;;;15.61;44.05
13124;BME280;6627;50.920;12.050;2023-12-28T08:06:58;98369.66;;;15.65;44.27
13124;BME280;6627;50.920;12.050;2023-12-28T08:09:28;98351.91;;;15.47;44.61
13124;BME280;6627;50.920;12.050;2023-12-28T08:11:57;98414.91;;;16.03;44.15
13124;BME280;6627;50.920;12.050;2023-12-28T08:14:34;98414.38;;;15.85;44.65
13124;BME280;6627;50.920;12.050;2023-12-28T08:17:14;98452.00;;;16.04;44.72
13124;BME280;6627;50.920;12.050;2023-12-28T08:19:53;98383.31;;;15.77;44.29
13124;BME280;6627;50.920;12.050;2023-12-28T08:22:21;98417.88;;;15.61;45.42
13124;BME280;6627;50.920;12.050;2023-12-28T08:24:50;98473.75;;;16.00;45.33
13124;BME280;6627;50.920;12.050;2023-12-28T08:27:17;98471.41;;;16.27;43.98
13124;BME280;6627;50.920;12.050;2023-12-28T08:29:44;98490.84;;;16.50;43.82
13124;BME280;6627;50.920;12.050;2023-12-28T08:32:12;98423.13;;;15.78;44.83
13124;BME280;6627;50.920;12.050;2023-12-28T08:34:39;98486.03;;;15.70;45.91
13124;BME280;6627;50.920;12.050;2023-12-28T08:37:07;98509.56;;;16.23;44.98
13124;BME280;6627;50.920;12.050;2023-12-28T08:39:34;98421.22;;;14.97;46.84
13124;BME280;6627;50.920;12.050;2023-12-28T08:42:03;98560.69;;;15.86;46.81
13124;BME280;6627;50.920;12.050;2023-12-28T08:44:31;98521.41;;;15.78;46.34
13124;BME280;6627;50.920;12.050;2023-12-28T08:46:58;98580.94;;;16.09;46.20
13124;BME280;6627;50.920;12.050;2023-12-28T08:49:28;98548.38;;;15.68;46.68
13124;BME280;6627;50.920;12.050;2023-12-28T08:51:56;98546.13;;;15.94;46.24
13124;BME280;6627;50.920;12.050;2023-12-28T08:54:24;98579.00;;;15.98;46.59
13124;BME280;6627;50.920;12.050;2023-12-28T08:56:51;98570.81;;;15.85;46.95
13124;BME280;6627;50.920;12.050;2023-12-28T08:59:20;98546.50;;;15.14;48.17
13124;BME280;6627;50.920;12.050;2023-12-28T09:01:48;98620.56;;;16.03;47.18
13124;BME280;6627;50.920;12.050;2023-12-28T09:04:15;98576.81;;;15.79;47.24
13124;BME280;6627;50.920;12.050;2023-12-28T09:06:43;98660.44;;;16.65;45.97
13124;BME280;6627;50.920;12.050;2023-12-28T09:09:11;98679.72;;;16.69;46.17
13124;BME280;6627;50.920;12.050;2023-12-28T09:11:58;98604.34;;;15.74;47.44
13124;BME280;6627;50.920;12.050;2023-12-28T09:14:46;98660.91;;;16.43;46.54
13124;BME280;6627;50.920;12.050;2023-12-28T09:17:14;98667.28;;;16.72;45.97
13124;BME280;6627;50.920;12.050;2023-12-28T09:19:41;98664.44;;;16.56;46.23
13124;BME280;6627;50.920;12.050;2023-12-28T09:22:09;98529.75;;;15.49;47.14
13124;BME280;6627;50.920;12.050;2023-12-28T09:24:36;98599.47;;;15.79;47.45
13124;BME280;6627;50.920;12.050;2023-12-28T09:27:03;98636.38;;;16.10;47.33
13124;BME280;6627;50.920;12.050;2023-12-28T09:29:31;98633.63;;;15.85;48.05
13124;BME280;6627;50.920;12.050;2023-12-28T09:32:03;98664.06;;;16.08;47.92
13124;BME280;6627;50.920;12.050;2023-12-28T09:34:30;98635.41;;;16.51;46.24
13124;BME280;6627;50.920;12.050;2023-12-28T09:37:09;98592.69;;;16.10;46.59
13124;BME280;6627;50.920;12.050;2023-12-28T09:39:36;98453.03;;;14.93;47.77
13124;BME280;6627;50.920;12.050;2023-12-28T09:42:11;98571.84;;;16.18;46.33
13124;BME280;6627;50.920;12.050;2023-12-28T09:44:43;98607.72;;;16.16;46.70
13124;BME280;6627;50.920;12.050;2023-12-28T09:47:12;98624.56;;;16.30;46.85
13124;BME280;6627;50.920;12.050;2023-12-28T09:49:43;98542.59;;;15.81;46.99
13124;BME280;6627;50.920;12.050;2023-12-28T09:52:11;98635.72;;;16.37;46.77
13124;BME280;6627;50.920;12.050;2023-12-28T09:54:38;98613.19;;;16.40;46.39
13124;BME280;6627;50.920;12.050;2023-12-28T09:57:06;98651.69;;;16.72;46.06
13124;BME280;6627;50.920;12.050;2023-12-28T09:59:33;98505.03;;;15.78;46.25
13124;BME280;6627;50.920;12.050;2023-12-28T10:02:01;98512.16;;;15.58;47.05
13124;BME280;6627;50.920;12.050;2023-12-28T10:04:31;98617.50;;;16.54;46.04
13124;BME280;6627;50.920;12.050;2023-12-28T10:06:59;98550.09;;;15.84;46.90
13124;BME280;6627;50.920;12.050;2023-12-28T10:09:27;98544.56;;;15.60;47.43
13124;BME280;6627;50.920;12.050;2023-12-28T10:11:56;98523.09;;;15.58;47.37
13124;BME280;6627;50.920;12.050;2023-12-28T10:14:25;98553.06;;;15.92;46.89
13124;BME280;6627;50.920;12.050;2023-12-28T10:16:52;98615.34;;;16.35;46.59
13124;BME280;6627;50.920;12.050;2023-12-28T10:19:22;98583.78;;;16.50;45.86
13124;BME280;6627;50.920;12.050;2023-12-28T10:21:51;98596.75;;;16.65;45.48
13124;BME280;6627;50.920;12.050;2023-12-28T10:24:18;98597.91;;;16.27;46.82
13124;BME280;6627;50.920;12.050;2023-12-28T10:26:47;98624.56;;;16.55;46.28
13124;BME280;6627;50.920;12.050;2023-12-28T10:29:14;98579.00;;;16.47;45.76
13124;BME280;6627;50.920;12.050;2023-12-28T10:31:42;98685.66;;;16.83;46.79
13124;BME280;6627;50.920;12.050;2023-12-28T10:34:11;98726.31;;;17.62;45.23
13124;BME280;6627;50.920;12.050;2023-12-28T10:36:40;98567.59;;;16.57;45.20
13124;BME280;6627;50.920;12.050;2023-12-28T10:39:11;98654.00;;;17.51;44.27
13124;BME280;6627;50.920;12.050;2023-12-28T10:41:44;98676.78;;;18.11;43.15
13124;BME280;6627;50.920;12.050;2023-12-28T10:44:20;98601.41;;;17.73;42.97
13124;BME280;6627;50.920;12.050;2023-12-28T10:46:55;98573.25;;;16.88;45.01
13124;BME280;6627;50.920;12.050;2023-12-28T10:49:25;98583.44;;;16.76;45.65
13124;BME280;6627;50.920;12.050;2023-12-28T10:51:54;98571.50;;;16.44;46.21
13124;BME280;6627;50.920;12.050;2023-12-28T10:54:44;98564.63;;;16.74;45.12
13124;BME280;6627;50.920;12.050;2023-12-28T10:57:23;98588.75;;;16.84;45.15
13124;BME280;6627;50.920;12.050;2023-12-28T11:00:09;98753.53;;;18.11;43.53
13124;BME280;6627;50.920;12.050;2023-12-28T11:03:02;98674.22;;;17.74;44.20
13124;BME280;6627;50.920;12.050;2023-12-28T11:05:32;98636.38;;;17.64;43.99
13124;BME280;6627;50.920;12.050;2023-12-28T11:08:18;98680.66;;;18.41;42.73
13124;BME280;6627;50.920;12.050;2023-12-28T11:10:50;98632.84;;;18.39;41.77
13124;BME280;6627;50.920;12.050;2023-12-28T11:13:20;98693.50;;;18.85;41.63
13124;BME280;6627;50.920;12.050;2023-12-28T11:15:49;98687.00;;;19.09;40.90
13124;BME280;6627;50.920;12.050;2023-12-28T11:18:18;98690.22;;;19.50;40.26
13124;BME280;6627;50.920;12.050;2023-12-28T11:20:54;98621.09;;;19.28;40.18
13124;BME280;6627;50.920;12.050;2023-12-28T11:23:24;98495.06;;;18.46;40.38
13124;BME280;6627;50.920;12.050;2023-12-28T11:25:54;98560.19;;;18.49;41.23
13124;BME280;6627;50.920;12.050;2023-12-28T11:28:24;98514.81;;;18.16;41.66
13124;BME280;6627;50.920;12.050;2023-12-28T11:31:13;98521.81;;;17.98;42.11
13124;BME280;6627;50.920;12.050;2023-12-28T11:33:45;98586.34;;;18.62;41.27
13124;BME280;6627;50.920;12.050;2023-12-28T11:36:22;98441.31;;;17.55;42.05
13124;BME280;6627;50.920;12.050;2023-12-28T11:38:53;98571.38;;;18.24;41.85
13124;BME280;6627;50.920;12.050;2023-12-28T11:41:25;98578.16;;;18.81;40.87
13124;BME280;6627;50.920;12.050;2023-12-28T11:43:53;98497.78;;;18.26;41.20
13124;BME280;6627;50.920;12.050;2023-12-28T11:46:21;98606.06;;;19.03;40.94
13124;BME280;6627;50.920;12.050;2023-12-28T11:48:49;98558.44;;;18.76;40.94
13124;BME280;6627;50.920;12.050;2023-12-28T11:51:18;98559.47;;;18.52;41.46
13124;BME280;6627;50.920;12.050;2023-12-28T11:53:46;98558.91;;;18.62;41.12
13124;BME280;6627;50.920;12.050;2023-12-28T11:56:16;98577.31;;;18.77;41.14
13124;BME280;6627;50.920;12.050;2023-12-28T11:58:45;98535.13;;;18.50;41.21
13124;BME280;6627;50.920;12.050;2023-12-28T12:01:14;98535.94;;;18.51;41.17
13124;BME280;6627;50.920;12.050;2023-12-28T12:03:41;98564.72;;;18.76;40.95
13124;BME280;6627;50.920;12.050;2023-12-28T12:06:09;98564.81;;;18.80;40.87
13124;BME280;6627;50.920;12.050;2023-12-28T12:08:37;98549.28;;;18.52;41.41
13124;BME280;6627;50.920;12.050;2023-12-28T12:11:06;98531.41;;;18.23;41.76
13124;BME280;6627;50.920;12.050;2023-12-28T12:13:35;98511.59;;;18.49;40.84
13124;BME280;6627;50.920;12.050;2023-12-28T12:16:05;98591.22;;;19.04;40.63
13124;BME280;6627;50.920;12.050;2023-12-28T12:18:33;98608.44;;;19.43;40.17
13124;BME280;6627;50.920;12.050;2023-12-28T12:21:02;98574.16;;;19.14;40.32
13124;BME280;6627;50.920;12.050;2023-12-28T12:23:30;98757.28;;;20.46;38.92
13124;BME280;6627;50.920;12.050;2023-12-28T12:26:05;98564.31;;;19.32;39.97
13124;BME280;6627;50.920;12.050;2023-12-28T12:28:34;98576.31;;;19.44;39.55
13124;BME280;6627;50.920;12.050;2023-12-28T12:31:04;98468.81;;;18.45;40.91
13124;BME280;6627;50.920;12.050;2023-12-28T12:33:32;98528.63;;;18.94;40.36
13124;BME280;6627;50.920;12.050;2023-12-28T12:36:00;98520.59;;;19.24;39.56
13124;BME280;6627;50.920;12.050;2023-12-28T12:38:29;98514.34;;;19.46;39.02
13124;BME280;6627;50.920;12.050;2023-12-28T12:40:57;98606.63;;;19.51;39.67
13124;BME280;6627;50.920;12.050;2023-12-28T12:43:25;98456.50;;;19.16;39.34
13124;BME280;6627;50.920;12.050;2023-12-28T12:46:14;98439.78;;;18.63;40.34
13124;BME280;6627;50.920;12.050;2023-12-28T12:48:42;98466.69;;;18.73;40.26
13124;BME280;6627;50.920;12.050;2023-12-28T12:51:12;98406.91;;;18.24;40.85
13124;BME280;6627;50.920;12.050;2023-12-28T12:53:40;98413.25;;;18.28;40.79
13124;BME280;6627;50.920;12.050;2023-12-28T12:56:20;98405.91;;;18.52;40.37
13124;BME280;6627;50.920;12.050;2023-12-28T12:58:49;98438.59;;;18.60;40.41
13124;BME280;6627;50.920;12.050;2023-12-28T13:01:18;98442.84;;;18.58;40.38
13124;BME280;6627;50.920;12.050;2023-12-28T13:03:46;98423.31;;;19.02;39.24
13124;BME280;6627;50.920;12.050;2023-12-28T13:06:14;98551.28;;;19.49;38.96
13124;BME280;6627;50.920;12.050;2023-12-28T13:08:42;98549.59;;;19.86;38.41
13124;BME280;6627;50.920;12.050;2023-12-28T13:11:10;98538.59;;;19.86;38.41
13124;BME280;6627;50.920;12.050;2023-12-28T13:13:37;98485.31;;;19.68;37.80
13124;BME280;6627;50.920;12.050;2023-12-28T13:16:05;98402.09;;;18.99;39.02
13124;BME280;6627;50.920;12.050;2023-12-28T13:18:34;98397.75;;;18.55;40.00
13124;BME280;6627;50.920;12.050;2023-12-28T13:21:02;98376.78;;;18.66;40.00
13124;BME280;6627;50.920;12.050;2023-12-28T13:23:30;98320.91;;;18.13;40.57
13124;BME280;6627;50.920;12.050;2023-12-28T13:25:57;98210.53;;;17.19;41.41
13124;BME280;6627;50.920;12.050;2023-12-28T13:28:25;98348.59;;;18.08;40.76
13124;BME280;6627;50.920;12.050;2023-12-28T13:30:52;98414.69;;;18.61;40.11